sensor_id;sensor_type;location;lat;lon;timestamp;temperature;humidity
44647;DHT22;56315;-33.902;151.160;2022-11-20T00:00:25;32.00;62.50
44647;DHT22;56315;-33.902;151.160;2022-11-20T00:05:59;31.90;63.40
44647;DHT22;56315;-33.902;151.160;2022-11-20T00:08:34;31.80;61.70
44647;DHT22;56315;-33.902;151.160;2022-11-20T00:14:04;31.70;62.10
44647;DHT22;56315;-33.902;151.160;2022-11-20T00:19:33;31.60;61.20
44647;DHT22;56315;-33.902;151.160;2022-11-20T00:25:02;31.40;62.00
44647;DHT22;56315;-33.902;151.160;2022-11-20T00:27:29;31.40;60.80
44647;DHT22;56315;-33.902;151.160;2022-11-20T00:38:57;31.70;62.50
44647;DHT22;56315;-33.902;151.160;2022-11-20T00:44:27;31.60;63.00
44647;DHT22;56315;-33.902;151.160;2022-11-20T00:55:55;31.70;61.90
44647;DHT22;56315;-33.902;151.160;2022-11-20T00:58:22;32.00;62.80
44647;DHT22;56315;-33.902;151.160;2022-11-20T01:00:49;32.00;60.90
44647;DHT22;56315;-33.902;151.160;2022-11-20T01:03:16;31.90;62.60
44647;DHT22;56315;-33.902;151.160;2022-11-20T01:05:43;31.90;61.60
44647;DHT22;56315;-33.902;151.160;2022-11-20T01:08:10;32.00;61.30
44647;DHT22;56315;-33.902;151.160;2022-11-20T01:10:36;32.00;62.10
44647;DHT22;56315;-33.902;151.160;2022-11-20T01:13:03;32.10;60.70
44647;DHT22;56315;-33.902;151.160;2022-11-20T01:15:47;32.10;61.80
44647;DHT22;56315;-33.902;151.160;2022-11-20T01:18:14;32.20;63.00
44647;DHT22;56315;-33.902;151.160;2022-11-20T01:20:41;32.20;60.80
44647;DHT22;56315;-33.902;151.160;2022-11-20T01:23:07;32.00;60.00
44647;DHT22;56315;-33.902;151.160;2022-11-20T01:25:34;31.70;59.70
44647;DHT22;56315;-33.902;151.160;2022-11-20T01:28:01;31.70;60.20
44647;DHT22;56315;-33.902;151.160;2022-11-20T01:30:28;31.50;59.60
44647;DHT22;56315;-33.902;151.160;2022-11-20T01:32:55;31.50;60.00
44647;DHT22;56315;-33.902;151.160;2022-11-20T01:35:21;31.40;59.50
44647;DHT22;56315;-33.902;151.160;2022-11-20T01:37:49;31.40;60.60
44647;DHT22;56315;-33.902;151.160;2022-11-20T01:40:16;31.60;60.90
44647;DHT22;56315;-33.902;151.160;2022-11-20T01:42:52;31.60;60.50
44647;DHT22;56315;-33.902;151.160;2022-11-20T01:48:11;31.40;60.60
44647;DHT22;56315;-33.902;151.160;2022-11-20T01:50:37;31.30;60.00
44647;DHT22;56315;-33.902;151.160;2022-11-20T01:53:05;31.10;59.80
44647;DHT22;56315;-33.902;151.160;2022-11-20T01:55:35;31.10;59.70
44647;DHT22;56315;-33.902;151.160;2022-11-20T01:58:03;31.00;61.30
44647;DHT22;56315;-33.902;151.160;2022-11-20T02:00:30;31.10;61.20
44647;DHT22;56315;-33.902;151.160;2022-11-20T02:02:57;31.10;61.00
44647;DHT22;56315;-33.902;151.160;2022-11-20T02:05:35;31.30;61.40
44647;DHT22;56315;-33.902;151.160;2022-11-20T02:08:02;31.30;61.00
44647;DHT22;56315;-33.902;151.160;2022-11-20T02:10:29;31.50;61.20
44647;DHT22;56315;-33.902;151.160;2022-11-20T02:12:56;31.70;62.80
44647;DHT22;56315;-33.902;151.160;2022-11-20T02:15:41;31.80;60.70
44647;DHT22;56315;-33.902;151.160;2022-11-20T02:18:07;31.70;60.20
44647;DHT22;56315;-33.902;151.160;2022-11-20T02:20:35;31.60;60.50
44647;DHT22;56315;-33.902;151.160;2022-11-20T02:23:08;31.50;60.50
44647;DHT22;56315;-33.902;151.160;2022-11-20T02:25:37;31.50;62.10
44647;DHT22;56315;-33.902;151.160;2022-11-20T02:28:05;31.60;61.20
44647;DHT22;56315;-33.902;151.160;2022-11-20T02:30:32;31.60;62.00
44647;DHT22;56315;-33.902;151.160;2022-11-20T02:32:58;31.80;61.00
44647;DHT22;56315;-33.902;151.160;2022-11-20T02:37:53;31.70;60.00
44647;DHT22;56315;-33.902;151.160;2022-11-20T02:40:20;31.60;60.50
44647;DHT22;56315;-33.902;151.160;2022-11-20T02:42:47;31.60;60.20
44647;DHT22;56315;-33.902;151.160;2022-11-20T02:45:14;31.50;60.60
44647;DHT22;56315;-33.902;151.160;2022-11-20T02:47:41;31.60;61.90
44647;DHT22;56315;-33.902;151.160;2022-11-20T02:50:07;31.70;60.30
44647;DHT22;56315;-33.902;151.160;2022-11-20T02:52:34;31.50;60.30
44647;DHT22;56315;-33.902;151.160;2022-11-20T02:55:01;31.30;61.70
44647;DHT22;56315;-33.902;151.160;2022-11-20T02:57:27;31.30;62.10
44647;DHT22;56315;-33.902;151.160;2022-11-20T02:59:54;31.30;62.10
44647;DHT22;56315;-33.902;151.160;2022-11-20T03:02:21;31.20;63.20
44647;DHT22;56315;-33.902;151.160;2022-11-20T03:04:48;31.10;62.00
44647;DHT22;56315;-33.902;151.160;2022-11-20T03:07:14;31.10;62.40
44647;DHT22;56315;-33.902;151.160;2022-11-20T03:09:41;31.10;62.60
44647;DHT22;56315;-33.902;151.160;2022-11-20T03:12:08;31.10;62.90
44647;DHT22;56315;-33.902;151.160;2022-11-20T03:14:34;31.10;63.00
44647;DHT22;56315;-33.902;151.160;2022-11-20T03:17:01;31.00;63.00
44647;DHT22;56315;-33.902;151.160;2022-11-20T03:19:28;30.80;63.20
44647;DHT22;56315;-33.902;151.160;2022-11-20T03:21:54;30.60;63.80
44647;DHT22;56315;-33.902;151.160;2022-11-20T03:24:21;30.40;64.50
44647;DHT22;56315;-33.902;151.160;2022-11-20T03:26:47;30.40;63.50
44647;DHT22;56315;-33.902;151.160;2022-11-20T03:29:14;30.30;63.60
44647;DHT22;56315;-33.902;151.160;2022-11-20T03:31:41;30.20;64.10
44647;DHT22;56315;-33.902;151.160;2022-11-20T03:34:08;30.00;64.40
44647;DHT22;56315;-33.902;151.160;2022-11-20T03:36:37;29.80;65.10
44647;DHT22;56315;-33.902;151.160;2022-11-20T03:39:04;29.70;65.00
44647;DHT22;56315;-33.902;151.160;2022-11-20T03:41:31;29.50;65.20
44647;DHT22;56315;-33.902;151.160;2022-11-20T03:43:59;29.40;64.20
44647;DHT22;56315;-33.902;151.160;2022-11-20T03:46:26;29.30;63.60
44647;DHT22;56315;-33.902;151.160;2022-11-20T03:48:53;29.20;62.10
44647;DHT22;56315;-33.902;151.160;2022-11-20T03:51:21;29.30;62.80
44647;DHT22;56315;-33.902;151.160;2022-11-20T03:53:48;29.20;61.60
44647;DHT22;56315;-33.902;151.160;2022-11-20T03:56:16;29.10;61.40
44647;DHT22;56315;-33.902;151.160;2022-11-20T03:58:43;29.10;62.40
44647;DHT22;56315;-33.902;151.160;2022-11-20T04:01:13;29.20;63.70
44647;DHT22;56315;-33.902;151.160;2022-11-20T04:03:41;29.30;61.00
44647;DHT22;56315;-33.902;151.160;2022-11-20T04:06:09;29.20;61.10
44647;DHT22;56315;-33.902;151.160;2022-11-20T04:08:36;29.10;64.00
44647;DHT22;56315;-33.902;151.160;2022-11-20T04:11:14;29.20;64.20
44647;DHT22;56315;-33.902;151.160;2022-11-20T04:13:41;29.20;64.50
44647;DHT22;56315;-33.902;151.160;2022-11-20T04:16:09;29.20;65.70
44647;DHT22;56315;-33.902;151.160;2022-11-20T04:18:36;29.20;62.00
44647;DHT22;56315;-33.902;151.160;2022-11-20T04:21:03;29.10;62.40
44647;DHT22;56315;-33.902;151.160;2022-11-20T04:23:30;29.20;62.70
44647;DHT22;56315;-33.902;151.160;2022-11-20T04:26:10;28.80;60.80
44647;DHT22;56315;-33.902;151.160;2022-11-20T04:28:37;28.70;63.90
44647;DHT22;56315;-33.902;151.160;2022-11-20T04:31:05;28.50;64.00
44647;DHT22;56315;-33.902;151.160;2022-11-20T04:33:33;28.30;64.20
44647;DHT22;56315;-33.902;151.160;2022-11-20T04:36:00;28.30;63.70
44647;DHT22;56315;-33.902;151.160;2022-11-20T04:38:27;28.30;63.60
44647;DHT22;56315;-33.902;151.160;2022-11-20T04:41:01;28.30;63.70
44647;DHT22;56315;-33.902;151.160;2022-11-20T04:43:28;28.40;63.80
44647;DHT22;56315;-33.902;151.160;2022-11-20T04:45:55;28.40;63.20
44647;DHT22;56315;-33.902;151.160;2022-11-20T04:48:22;28.40;63.50
44647;DHT22;56315;-33.902;151.160;2022-11-20T04:50:49;28.30;63.30
44647;DHT22;56315;-33.902;151.160;2022-11-20T04:53:16;28.30;63.40
44647;DHT22;56315;-33.902;151.160;2022-11-20T04:55:43;28.10;61.80
44647;DHT22;56315;-33.902;151.160;2022-11-20T04:58:10;28.00;58.70
44647;DHT22;56315;-33.902;151.160;2022-11-20T05:00:37;27.90;58.70
44647;DHT22;56315;-33.902;151.160;2022-11-20T05:03:03;27.80;59.70
44647;DHT22;56315;-33.902;151.160;2022-11-20T05:05:30;27.80;60.30
44647;DHT22;56315;-33.902;151.160;2022-11-20T05:07:57;27.80;61.60
44647;DHT22;56315;-33.902;151.160;2022-11-20T05:10:24;27.80;60.50
44647;DHT22;56315;-33.902;151.160;2022-11-20T05:12:51;27.80;61.10
44647;DHT22;56315;-33.902;151.160;2022-11-20T05:15:18;27.80;59.80
44647;DHT22;56315;-33.902;151.160;2022-11-20T05:17:51;27.80;60.20
44647;DHT22;56315;-33.902;151.160;2022-11-20T05:20:18;27.50;60.70
44647;DHT22;56315;-33.902;151.160;2022-11-20T05:22:45;27.40;60.90
44647;DHT22;56315;-33.902;151.160;2022-11-20T05:25:12;27.30;60.80
44647;DHT22;56315;-33.902;151.160;2022-11-20T05:27:38;27.20;60.80
44647;DHT22;56315;-33.902;151.160;2022-11-20T05:30:05;27.20;61.50
44647;DHT22;56315;-33.902;151.160;2022-11-20T05:32:32;27.20;61.60
44647;DHT22;56315;-33.902;151.160;2022-11-20T05:34:59;27.20;60.10
44647;DHT22;56315;-33.902;151.160;2022-11-20T05:37:26;27.10;59.10
44647;DHT22;56315;-33.902;151.160;2022-11-20T05:39:52;27.10;58.40
44647;DHT22;56315;-33.902;151.160;2022-11-20T05:42:19;27.00;60.30
44647;DHT22;56315;-33.902;151.160;2022-11-20T05:45:02;26.90;60.60
44647;DHT22;56315;-33.902;151.160;2022-11-20T05:47:31;26.90;60.50
44647;DHT22;56315;-33.902;151.160;2022-11-20T05:49:58;26.80;60.10
44647;DHT22;56315;-33.902;151.160;2022-11-20T05:52:27;26.70;61.70
44647;DHT22;56315;-33.902;151.160;2022-11-20T05:54:54;26.60;61.50
44647;DHT22;56315;-33.902;151.160;2022-11-20T05:57:21;26.60;61.10
44647;DHT22;56315;-33.902;151.160;2022-11-20T05:59:47;26.60;60.70
44647;DHT22;56315;-33.902;151.160;2022-11-20T06:02:14;26.50;58.70
44647;DHT22;56315;-33.902;151.160;2022-11-20T06:04:41;26.40;59.20
44647;DHT22;56315;-33.902;151.160;2022-11-20T06:07:07;26.50;59.60
44647;DHT22;56315;-33.902;151.160;2022-11-20T06:09:34;26.50;59.40
44647;DHT22;56315;-33.902;151.160;2022-11-20T06:12:01;26.50;60.40
44647;DHT22;56315;-33.902;151.160;2022-11-20T06:14:27;26.50;59.70
44647;DHT22;56315;-33.902;151.160;2022-11-20T06:16:54;26.60;59.40
44647;DHT22;56315;-33.902;151.160;2022-11-20T06:19:21;26.50;59.00
44647;DHT22;56315;-33.902;151.160;2022-11-20T06:21:48;26.50;59.50
44647;DHT22;56315;-33.902;151.160;2022-11-20T06:24:15;26.50;58.70
44647;DHT22;56315;-33.902;151.160;2022-11-20T06:26:43;26.40;58.80
44647;DHT22;56315;-33.902;151.160;2022-11-20T06:29:10;26.30;59.40
44647;DHT22;56315;-33.902;151.160;2022-11-20T06:31:36;26.30;59.20
44647;DHT22;56315;-33.902;151.160;2022-11-20T06:34:06;26.20;59.90
44647;DHT22;56315;-33.902;151.160;2022-11-20T06:36:34;26.10;59.50
44647;DHT22;56315;-33.902;151.160;2022-11-20T06:39:01;26.10;59.40
44647;DHT22;56315;-33.902;151.160;2022-11-20T06:41:28;26.00;60.10
44647;DHT22;56315;-33.902;151.160;2022-11-20T06:55:55;25.70;59.20
44647;DHT22;56315;-33.902;151.160;2022-11-20T06:58:29;25.60;59.00
44647;DHT22;56315;-33.902;151.160;2022-11-20T07:07:02;25.40;60.20
44647;DHT22;56315;-33.902;151.160;2022-11-20T07:12:31;25.30;60.60
44647;DHT22;56315;-33.902;151.160;2022-11-20T07:14:58;25.20;59.60
44647;DHT22;56315;-33.902;151.160;2022-11-20T07:17:24;25.10;58.50
44647;DHT22;56315;-33.902;151.160;2022-11-20T07:22:55;25.00;58.90
44647;DHT22;56315;-33.902;151.160;2022-11-20T07:25:30;24.90;58.80
44647;DHT22;56315;-33.902;151.160;2022-11-20T07:27:57;24.80;59.00
44647;DHT22;56315;-33.902;151.160;2022-11-20T07:36:30;24.70;60.10
44647;DHT22;56315;-33.902;151.160;2022-11-20T07:42:18;24.50;60.30
44647;DHT22;56315;-33.902;151.160;2022-11-20T07:47:48;24.40;61.60
44647;DHT22;56315;-33.902;151.160;2022-11-20T07:53:27;24.30;62.50
44647;DHT22;56315;-33.902;151.160;2022-11-20T07:55:53;24.20;61.90
44647;DHT22;56315;-33.902;151.160;2022-11-20T07:58:20;24.10;62.90
44647;DHT22;56315;-33.902;151.160;2022-11-20T08:00:47;24.10;63.30
44647;DHT22;56315;-33.902;151.160;2022-11-20T08:03:14;24.00;63.60
44647;DHT22;56315;-33.902;151.160;2022-11-20T08:05:40;24.00;63.40
44647;DHT22;56315;-33.902;151.160;2022-11-20T08:08:07;23.80;64.20
44647;DHT22;56315;-33.902;151.160;2022-11-20T08:10:33;23.80;63.60
44647;DHT22;56315;-33.902;151.160;2022-11-20T08:13:00;23.70;64.70
44647;DHT22;56315;-33.902;151.160;2022-11-20T08:15:47;23.60;64.40
44647;DHT22;56315;-33.902;151.160;2022-11-20T08:18:15;23.50;64.30
44647;DHT22;56315;-33.902;151.160;2022-11-20T08:20:43;23.50;64.90
44647;DHT22;56315;-33.902;151.160;2022-11-20T08:23:10;23.50;65.10
44647;DHT22;56315;-33.902;151.160;2022-11-20T08:25:37;23.30;65.90
44647;DHT22;56315;-33.902;151.160;2022-11-20T08:28:05;23.30;65.80
44647;DHT22;56315;-33.902;151.160;2022-11-20T08:30:32;23.20;65.90
44647;DHT22;56315;-33.902;151.160;2022-11-20T08:33:04;23.10;66.80
44647;DHT22;56315;-33.902;151.160;2022-11-20T08:35:37;23.00;67.10
44647;DHT22;56315;-33.902;151.160;2022-11-20T08:38:04;22.90;67.20
44647;DHT22;56315;-33.902;151.160;2022-11-20T08:40:31;22.80;67.30
44647;DHT22;56315;-33.902;151.160;2022-11-20T08:42:58;22.80;67.30
44647;DHT22;56315;-33.902;151.160;2022-11-20T08:45:24;22.80;67.20
44647;DHT22;56315;-33.902;151.160;2022-11-20T08:47:51;22.70;68.50
44647;DHT22;56315;-33.902;151.160;2022-11-20T08:50:18;22.60;67.80
44647;DHT22;56315;-33.902;151.160;2022-11-20T08:52:44;22.50;67.80
44647;DHT22;56315;-33.902;151.160;2022-11-20T08:55:11;22.50;67.00
44647;DHT22;56315;-33.902;151.160;2022-11-20T08:57:38;22.50;67.90
44647;DHT22;56315;-33.902;151.160;2022-11-20T09:00:05;22.40;67.60
44647;DHT22;56315;-33.902;151.160;2022-11-20T09:02:32;22.40;67.40
44647;DHT22;56315;-33.902;151.160;2022-11-20T09:04:59;22.30;67.30
44647;DHT22;56315;-33.902;151.160;2022-11-20T09:07:28;22.20;67.50
44647;DHT22;56315;-33.902;151.160;2022-11-20T09:09:55;22.20;67.50
44647;DHT22;56315;-33.902;151.160;2022-11-20T09:12:21;22.10;67.70
44647;DHT22;56315;-33.902;151.160;2022-11-20T09:14:48;22.10;67.50
44647;DHT22;56315;-33.902;151.160;2022-11-20T09:17:14;22.00;66.80
44647;DHT22;56315;-33.902;151.160;2022-11-20T09:19:41;22.00;67.20
44647;DHT22;56315;-33.902;151.160;2022-11-20T09:22:08;22.00;66.80
44647;DHT22;56315;-33.902;151.160;2022-11-20T09:24:34;21.90;67.50
44647;DHT22;56315;-33.902;151.160;2022-11-20T09:27:02;21.90;67.30
44647;DHT22;56315;-33.902;151.160;2022-11-20T09:29:29;21.80;67.70
44647;DHT22;56315;-33.902;151.160;2022-11-20T09:31:55;21.80;67.50
44647;DHT22;56315;-33.902;151.160;2022-11-20T09:34:23;21.80;67.30
44647;DHT22;56315;-33.902;151.160;2022-11-20T09:36:50;21.70;67.80
44647;DHT22;56315;-33.902;151.160;2022-11-20T09:39:17;21.60;68.00
44647;DHT22;56315;-33.902;151.160;2022-11-20T09:45:00;21.50;68.40
44647;DHT22;56315;-33.902;151.160;2022-11-20T09:54:43;21.30;68.30
44647;DHT22;56315;-33.902;151.160;2022-11-20T09:57:11;21.20;68.30
44647;DHT22;56315;-33.902;151.160;2022-11-20T10:05:06;21.20;68.40
44647;DHT22;56315;-33.902;151.160;2022-11-20T10:07:40;21.10;67.90
44647;DHT22;56315;-33.902;151.160;2022-11-20T10:10:21;21.10;68.00
44647;DHT22;56315;-33.902;151.160;2022-11-20T10:25:20;20.80;69.00
44647;DHT22;56315;-33.902;151.160;2022-11-20T10:30:15;20.80;68.20
44647;DHT22;56315;-33.902;151.160;2022-11-20T10:32:44;20.80;68.40
44647;DHT22;56315;-33.902;151.160;2022-11-20T10:37:53;20.70;68.60
44647;DHT22;56315;-33.902;151.160;2022-11-20T10:42:52;20.70;69.40
44647;DHT22;56315;-33.902;151.160;2022-11-20T10:47:55;20.50;70.30
44647;DHT22;56315;-33.902;151.160;2022-11-20T10:50:23;20.60;69.90
44647;DHT22;56315;-33.902;151.160;2022-11-20T10:52:54;20.50;70.90
44647;DHT22;56315;-33.902;151.160;2022-11-20T11:00:16;20.30;71.50
44647;DHT22;56315;-33.902;151.160;2022-11-20T11:02:44;20.20;71.00
44647;DHT22;56315;-33.902;151.160;2022-11-20T11:05:14;20.10;71.20
44647;DHT22;56315;-33.902;151.160;2022-11-20T11:07:44;20.00;71.90
44647;DHT22;56315;-33.902;151.160;2022-11-20T11:10:16;19.90;72.60
44647;DHT22;56315;-33.902;151.160;2022-11-20T11:12:45;19.90;74.10
44647;DHT22;56315;-33.902;151.160;2022-11-20T11:15:14;19.80;74.80
44647;DHT22;56315;-33.902;151.160;2022-11-20T11:17:50;19.70;73.50
44647;DHT22;56315;-33.902;151.160;2022-11-20T11:20:17;19.60;73.80
44647;DHT22;56315;-33.902;151.160;2022-11-20T11:22:54;19.60;74.00
44647;DHT22;56315;-33.902;151.160;2022-11-20T11:25:23;19.40;74.50
44647;DHT22;56315;-33.902;151.160;2022-11-20T11:27:51;19.30;75.10
44647;DHT22;56315;-33.902;151.160;2022-11-20T11:30:18;19.20;76.00
44647;DHT22;56315;-33.902;151.160;2022-11-20T11:32:45;19.10;77.10
44647;DHT22;56315;-33.902;151.160;2022-11-20T11:35:20;19.00;77.20
44647;DHT22;56315;-33.902;151.160;2022-11-20T11:37:46;18.90;77.70
44647;DHT22;56315;-33.902;151.160;2022-11-20T11:40:14;18.80;78.60
44647;DHT22;56315;-33.902;151.160;2022-11-20T11:42:46;18.70;79.10
44647;DHT22;56315;-33.902;151.160;2022-11-20T11:45:16;18.70;78.10
44647;DHT22;56315;-33.902;151.160;2022-11-20T11:52:38;18.80;78.10
44647;DHT22;56315;-33.902;151.160;2022-11-20T11:55:08;18.80;78.90
44647;DHT22;56315;-33.902;151.160;2022-11-20T12:00:12;18.60;79.60
44647;DHT22;56315;-33.902;151.160;2022-11-20T12:08:01;18.80;79.10
44647;DHT22;56315;-33.902;151.160;2022-11-20T12:13:02;18.90;79.10
44647;DHT22;56315;-33.902;151.160;2022-11-20T12:15:32;18.80;79.40
44647;DHT22;56315;-33.902;151.160;2022-11-20T12:17:59;18.70;80.10
44647;DHT22;56315;-33.902;151.160;2022-11-20T12:20:28;18.70;81.00
44647;DHT22;56315;-33.902;151.160;2022-11-20T12:23:01;18.60;80.60
44647;DHT22;56315;-33.902;151.160;2022-11-20T12:25:33;18.50;81.00
44647;DHT22;56315;-33.902;151.160;2022-11-20T12:28:23;18.40;82.30
44647;DHT22;56315;-33.902;151.160;2022-11-20T12:35:58;18.10;83.40
44647;DHT22;56315;-33.902;151.160;2022-11-20T12:38:41;18.00;84.60
44647;DHT22;56315;-33.902;151.160;2022-11-20T12:43:48;17.90;83.90
44647;DHT22;56315;-33.902;151.160;2022-11-20T12:46:46;17.90;84.60
44647;DHT22;56315;-33.902;151.160;2022-11-20T12:52:10;18.00;82.30
44647;DHT22;56315;-33.902;151.160;2022-11-20T12:57:24;18.10;82.00
44647;DHT22;56315;-33.902;151.160;2022-11-20T13:02:40;18.20;83.20
44647;DHT22;56315;-33.902;151.160;2022-11-20T13:05:21;18.20;82.80
44647;DHT22;56315;-33.902;151.160;2022-11-20T13:07:51;18.30;85.00
44647;DHT22;56315;-33.902;151.160;2022-11-20T13:10:43;18.20;82.60
44647;DHT22;56315;-33.902;151.160;2022-11-20T13:18:11;18.10;83.50
44647;DHT22;56315;-33.902;151.160;2022-11-20T13:20:42;18.00;84.10
44647;DHT22;56315;-33.902;151.160;2022-11-20T13:23:09;17.90;84.90
44647;DHT22;56315;-33.902;151.160;2022-11-20T13:25:37;17.80;85.80
44647;DHT22;56315;-33.902;151.160;2022-11-20T13:28:05;17.60;86.00
44647;DHT22;56315;-33.902;151.160;2022-11-20T13:30:51;17.60;85.40
44647;DHT22;56315;-33.902;151.160;2022-11-20T13:33:31;17.60;86.00
44647;DHT22;56315;-33.902;151.160;2022-11-20T13:36:02;17.50;87.50
44647;DHT22;56315;-33.902;151.160;2022-11-20T13:38:40;17.50;88.20
44647;DHT22;56315;-33.902;151.160;2022-11-20T13:41:07;17.30;90.00
44647;DHT22;56315;-33.902;151.160;2022-11-20T13:43:52;17.10;90.60
44647;DHT22;56315;-33.902;151.160;2022-11-20T13:46:18;17.00;90.80
44647;DHT22;56315;-33.902;151.160;2022-11-20T13:48:51;16.90;90.10
44647;DHT22;56315;-33.902;151.160;2022-11-20T13:54:05;17.00;90.60
44647;DHT22;56315;-33.902;151.160;2022-11-20T14:01:36;17.00;90.00
44647;DHT22;56315;-33.902;151.160;2022-11-20T14:04:07;17.00;89.80
44647;DHT22;56315;-33.902;151.160;2022-11-20T14:06:44;17.10;88.20
44647;DHT22;56315;-33.902;151.160;2022-11-20T14:09:13;17.20;86.80
44647;DHT22;56315;-33.902;151.160;2022-11-20T14:11:50;17.40;84.60
44647;DHT22;56315;-33.902;151.160;2022-11-20T14:14:18;17.60;85.00
44647;DHT22;56315;-33.902;151.160;2022-11-20T14:16:45;17.70;84.80
44647;DHT22;56315;-33.902;151.160;2022-11-20T14:21:48;17.80;82.90
44647;DHT22;56315;-33.902;151.160;2022-11-20T14:24:18;17.90;82.90
44647;DHT22;56315;-33.902;151.160;2022-11-20T14:26:46;18.00;82.20
44647;DHT22;56315;-33.902;151.160;2022-11-20T14:29:16;18.10;83.80
44647;DHT22;56315;-33.902;151.160;2022-11-20T14:31:44;18.10;81.90
44647;DHT22;56315;-33.902;151.160;2022-11-20T14:34:24;18.20;82.20
44647;DHT22;56315;-33.902;151.160;2022-11-20T14:36:53;18.20;81.70
44647;DHT22;56315;-33.902;151.160;2022-11-20T14:39:22;18.30;81.40
44647;DHT22;56315;-33.902;151.160;2022-11-20T14:41:52;18.30;81.50
44647;DHT22;56315;-33.902;151.160;2022-11-20T14:44:20;18.30;81.70
44647;DHT22;56315;-33.902;151.160;2022-11-20T14:46:48;18.30;82.70
44647;DHT22;56315;-33.902;151.160;2022-11-20T14:49:16;18.40;81.30
44647;DHT22;56315;-33.902;151.160;2022-11-20T14:51:43;18.50;80.70
44647;DHT22;56315;-33.902;151.160;2022-11-20T14:54:15;18.50;80.20
44647;DHT22;56315;-33.902;151.160;2022-11-20T14:56:42;18.50;80.00
44647;DHT22;56315;-33.902;151.160;2022-11-20T14:59:29;18.60;80.50
44647;DHT22;56315;-33.902;151.160;2022-11-20T15:02:01;18.50;80.50
44647;DHT22;56315;-33.902;151.160;2022-11-20T15:04:27;18.50;81.50
44647;DHT22;56315;-33.902;151.160;2022-11-20T15:06:55;18.50;80.50
44647;DHT22;56315;-33.902;151.160;2022-11-20T15:09:22;18.50;81.40
44647;DHT22;56315;-33.902;151.160;2022-11-20T15:11:55;18.50;81.60
44647;DHT22;56315;-33.902;151.160;2022-11-20T15:14:23;18.30;82.60
44647;DHT22;56315;-33.902;151.160;2022-11-20T15:16:50;18.30;82.40
44647;DHT22;56315;-33.902;151.160;2022-11-20T15:19:18;18.30;83.20
44647;DHT22;56315;-33.902;151.160;2022-11-20T15:21:45;18.20;83.50
44647;DHT22;56315;-33.902;151.160;2022-11-20T15:24:12;18.20;83.80
44647;DHT22;56315;-33.902;151.160;2022-11-20T15:26:38;18.00;85.80
44647;DHT22;56315;-33.902;151.160;2022-11-20T15:29:15;17.90;86.10
44647;DHT22;56315;-33.902;151.160;2022-11-20T15:31:45;17.90;85.40
44647;DHT22;56315;-33.902;151.160;2022-11-20T15:34:12;17.90;85.40
44647;DHT22;56315;-33.902;151.160;2022-11-20T15:36:39;18.00;86.40
44647;DHT22;56315;-33.902;151.160;2022-11-20T15:39:06;17.90;85.50
44647;DHT22;56315;-33.902;151.160;2022-11-20T15:41:37;17.90;88.50
44647;DHT22;56315;-33.902;151.160;2022-11-20T15:44:04;17.90;87.70
44647;DHT22;56315;-33.902;151.160;2022-11-20T15:46:31;17.90;88.60
44647;DHT22;56315;-33.902;151.160;2022-11-20T15:49:04;17.80;87.90
44647;DHT22;56315;-33.902;151.160;2022-11-20T15:51:31;17.80;86.60
44647;DHT22;56315;-33.902;151.160;2022-11-20T15:54:00;17.70;87.60
44647;DHT22;56315;-33.902;151.160;2022-11-20T15:56:27;17.80;87.40
44647;DHT22;56315;-33.902;151.160;2022-11-20T15:58:54;17.80;86.70
44647;DHT22;56315;-33.902;151.160;2022-11-20T16:01:21;17.80;85.70
44647;DHT22;56315;-33.902;151.160;2022-11-20T16:03:48;17.90;85.10
44647;DHT22;56315;-33.902;151.160;2022-11-20T16:06:15;17.90;85.30
44647;DHT22;56315;-33.902;151.160;2022-11-20T16:08:44;18.10;85.00
44647;DHT22;56315;-33.902;151.160;2022-11-20T16:11:15;18.10;85.00
44647;DHT22;56315;-33.902;151.160;2022-11-20T16:13:42;18.20;84.50
44647;DHT22;56315;-33.902;151.160;2022-11-20T16:18:57;18.40;83.20
44647;DHT22;56315;-33.902;151.160;2022-11-20T16:21:26;18.40;83.60
44647;DHT22;56315;-33.902;151.160;2022-11-20T16:23:59;18.40;83.60
44647;DHT22;56315;-33.902;151.160;2022-11-20T16:26:26;18.50;82.60
44647;DHT22;56315;-33.902;151.160;2022-11-20T16:28:53;18.50;83.00
44647;DHT22;56315;-33.902;151.160;2022-11-20T16:31:23;18.40;82.80
44647;DHT22;56315;-33.902;151.160;2022-11-20T16:33:50;18.40;83.30
44647;DHT22;56315;-33.902;151.160;2022-11-20T16:36:17;18.30;82.90
44647;DHT22;56315;-33.902;151.160;2022-11-20T16:38:44;18.30;83.20
44647;DHT22;56315;-33.902;151.160;2022-11-20T16:41:11;18.30;82.40
44647;DHT22;56315;-33.902;151.160;2022-11-20T16:43:47;18.30;82.50
44647;DHT22;56315;-33.902;151.160;2022-11-20T16:46:14;18.30;82.40
44647;DHT22;56315;-33.902;151.160;2022-11-20T16:48:41;18.20;82.30
44647;DHT22;56315;-33.902;151.160;2022-11-20T16:51:08;18.30;82.50
44647;DHT22;56315;-33.902;151.160;2022-11-20T16:53:35;18.20;82.70
44647;DHT22;56315;-33.902;151.160;2022-11-20T16:56:09;18.30;83.90
44647;DHT22;56315;-33.902;151.160;2022-11-20T16:58:36;18.30;84.10
44647;DHT22;56315;-33.902;151.160;2022-11-20T17:01:06;18.30;85.50
44647;DHT22;56315;-33.902;151.160;2022-11-20T17:03:36;18.20;85.10
44647;DHT22;56315;-33.902;151.160;2022-11-20T17:06:09;18.10;84.80
44647;DHT22;56315;-33.902;151.160;2022-11-20T17:08:36;18.10;85.00
44647;DHT22;56315;-33.902;151.160;2022-11-20T17:11:06;18.10;84.30
44647;DHT22;56315;-33.902;151.160;2022-11-20T17:13:33;18.00;85.30
44647;DHT22;56315;-33.902;151.160;2022-11-20T17:16:04;17.90;86.40
44647;DHT22;56315;-33.902;151.160;2022-11-20T17:18:31;17.90;87.60
44647;DHT22;56315;-33.902;151.160;2022-11-20T17:20:58;17.80;88.20
44647;DHT22;56315;-33.902;151.160;2022-11-20T17:23:33;17.60;89.20
44647;DHT22;56315;-33.902;151.160;2022-11-20T17:26:21;17.50;90.20
44647;DHT22;56315;-33.902;151.160;2022-11-20T17:29:09;17.40;90.50
44647;DHT22;56315;-33.902;151.160;2022-11-20T17:31:34;17.30;90.90
44647;DHT22;56315;-33.902;151.160;2022-11-20T17:34:03;17.20;90.90
44647;DHT22;56315;-33.902;151.160;2022-11-20T17:36:30;17.20;91.30
44647;DHT22;56315;-33.902;151.160;2022-11-20T17:38:57;17.20;91.80
44647;DHT22;56315;-33.902;151.160;2022-11-20T17:41:25;17.20;91.60
44647;DHT22;56315;-33.902;151.160;2022-11-20T17:43:56;17.10;90.30
44647;DHT22;56315;-33.902;151.160;2022-11-20T17:46:24;17.10;90.60
44647;DHT22;56315;-33.902;151.160;2022-11-20T17:48:52;17.10;90.60